Time;durP1;ratioP1;P1;durP2;ratioP2;P2;SDS_P1;SDS_P2;PMS_P1;PMS_P2;Temp;Humidity;BMP_temperature;BMP_pressure;BME280_temperature;BME280_humidity;BME280_pressure;Samples;Min_cycle;Max_cycle;Signal;HPM_P1;HPM_P2
2022/07/12 00:00:19;;;;;;;5.70;1.30;;;;;;;15.14;100.00;99106.19;4422242;32;20046;-78
2022/07/12 00:03:02;;;;;;;4.65;1.62;;;;;;;15.16;100.00;99108.63;4421056;32;20060;-71
2022/07/12 00:05:29;;;;;;;1.37;1.27;;;;;;;15.29;100.00;99108.00;4432234;32;20067;-70
2022/07/12 00:07:55;;;;;;;4.18;1.37;;;;;;;14.91;100.00;99079.69;4443731;32;20465;-72
2022/07/12 00:10:21;;;;;;;3.22;1.45;;;;;;;15.09;100.00;99111.59;4416762;32;20026;-72
2022/07/12 00:12:48;;;;;;;3.35;1.55;;;;;;;15.06;100.00;99104.00;4424251;32;20050;-71
2022/07/12 00:15:21;;;;;;;5.15;1.52;;;;;;;14.94;100.00;99088.06;4417190;32;20202;-72
2022/07/12 00:17:47;;;;;;;8.02;1.35;;;;;;;15.22;100.00;99121.88;4416688;32;20025;-72
2022/07/12 00:20:13;;;;;;;6.53;1.58;;;;;;;15.42;100.00;99122.84;4425158;32;20057;-73
2022/07/12 00:22:40;;;;;;;1.65;1.20;;;;;;;15.15;100.00;99069.81;4425421;32;20117;-71
2022/07/12 00:25:07;;;;;;;1.95;1.85;;;;;;;15.02;100.00;99040.59;4430731;32;20121;-72
2022/07/12 00:27:33;;;;;;;5.80;1.50;;;;;;;15.17;100.00;99083.09;4439896;32;20125;-72
2022/07/12 00:30:00;;;;;;;2.12;1.30;;;;;;;15.40;100.00;99116.91;4435316;32;20070;-71
2022/07/12 00:32:26;;;;;;;4.05;1.55;;;;;;;15.40;100.00;99116.91;4433546;32;20059;-72
2022/07/12 00:35:00;;;;;;;4.28;1.50;;;;;;;15.56;100.00;99121.16;4422547;32;20458;-71
2022/07/12 00:37:26;;;;;;;3.35;1.05;;;;;;;15.09;100.00;99073.63;4426641;32;20367;-72
2022/07/12 00:39:52;;;;;;;4.15;1.48;;;;;;;15.16;100.00;99076.88;4416791;32;20041;-73
2022/07/12 00:42:19;;;;;;;1.37;1.27;;;;;;;15.51;100.00;99121.19;4426246;32;20182;-72
2022/07/12 00:44:45;;;;;;;2.78;1.60;;;;;;;15.31;100.00;99083.31;4432841;32;20050;-71
2022/07/12 00:47:37;;;;;;;1.20;1.20;;;;;;;15.17;100.00;99075.78;4429132;32;20849;-72
2022/07/12 00:50:15;;;;;;;1.40;1.20;;;;;;;15.34;100.00;99120.72;4422622;32;20122;-72
2022/07/12 00:52:43;;;;;;;3.83;1.20;;;;;;;15.28;100.00;99121.84;4415055;32;20038;-72
2022/07/12 00:55:11;;;;;;;1.73;1.15;;;;;;;15.08;100.00;99097.25;4424778;32;20042;-72
2022/07/12 00:57:38;;;;;;;2.53;1.17;;;;;;;15.41;100.00;99119.34;4432594;32;20050;-72
2022/07/12 01:00:08;;;;;;;1.25;1.20;;;;;;;15.23;100.00;99093.63;4421966;32;20034;-72
2022/07/12 01:02:36;;;;;;;3.95;1.60;;;;;;;15.50;100.00;99124.97;4416983;32;20046;-71
2022/07/12 01:05:04;;;;;;;9.18;1.75;;;;;;;15.39;100.00;99096.28;4429275;32;20043;-72
2022/07/12 01:07:31;;;;;;;2.65;1.62;;;;;;;15.35;100.00;99089.78;4429420;32;20054;-71
2022/07/12 01:09:58;;;;;;;6.12;1.80;;;;;;;15.60;100.00;99116.78;4427524;32;20180;-72
2022/07/12 01:12:25;;;;;;;1.10;1.10;;;;;;;15.55;100.00;99111.38;4425878;32;20056;-72
2022/07/12 01:14:52;;;;;;;2.75;1.30;;;;;;;15.62;100.00;99122.75;4430682;32;20056;-72
2022/07/12 01:17:24;;;;;;;2.42;1.42;;;;;;;15.66;100.00;99124.91;4434067;32;20057;-71
2022/07/12 01:19:54;;;;;;;6.12;1.85;;;;;;;15.36;100.00;99075.12;4419682;32;20029;-71
2022/07/12 01:22:26;;;;;;;2.97;1.20;;;;;;;15.57;100.00;99125.50;4423614;32;20084;-71
2022/07/12 01:24:53;;;;;;;11.40;1.60;;;;;;;15.67;100.00;99112.94;4418310;32;20070;-71
2022/07/12 01:27:19;;;;;;;1.58;1.20;;;;;;;15.54;100.00;99109.78;4416973;32;20031;-72
2022/07/12 01:29:46;;;;;;;2.35;1.20;;;;;;;15.62;100.00;99111.09;4418585;32;20203;-70
2022/07/12 01:32:24;;;;;;;2.00;1.12;;;;;;;15.50;100.00;99108.69;4418658;32;20054;-70
2022/07/12 01:34:57;;;;;;;1.15;1.10;;;;;;;15.44;100.00;99105.22;4418994;32;20043;-70
2022/07/12 01:37:27;;;;;;;0.90;0.90;;;;;;;15.47;100.00;99108.44;4419872;32;20081;-71
2022/07/12 01:39:56;;;;;;;7.55;1.27;;;;;;;15.38;100.00;99110.94;4417157;32;20368;-73
2022/07/12 01:42:24;;;;;;;1.70;1.60;;;;;;;15.38;100.00;99108.22;4425227;32;20085;-71
2022/07/12 01:44:52;;;;;;;4.90;1.98;;;;;;;15.49;100.00;99107.06;4432359;32;20064;-71
2022/07/12 01:47:20;;;;;;;7.93;1.05;;;;;;;15.48;100.00;99100.03;4432112;32;20043;-71
2022/07/12 01:49:46;;;;;;;6.55;1.52;;;;;;;15.33;100.00;99108.25;4420013;32;20399;-71
2022/07/12 01:52:13;;;;;;;5.05;1.45;;;;;;;15.26;100.00;99109.34;4418625;32;20031;-71
2022/07/12 01:54:40;;;;;;;1.10;1.00;;;;;;;15.16;100.00;99108.63;4417293;32;20051;-71
2022/07/12 01:57:07;;;;;;;3.17;1.20;;;;;;;15.01;100.00;99098.62;4417315;32;20064;-72
2022/07/12 01:59:33;;;;;;;2.75;1.40;;;;;;;14.99;100.00;99087.25;4422090;32;20084;-72
2022/07/12 02:02:03;;;;;;;2.25;0.98;;;;;;;15.00;100.00;99069.91;4434372;32;20388;-71
2022/07/12 02:04:29;;;;;;;5.60;1.33;;;;;;;14.93;100.00;99061.25;4424895;32;20050;-71
2022/07/12 02:06:56;;;;;;;2.80;1.40;;;;;;;15.25;100.00;99105.03;4433882;32;20096;-71
2022/07/12 02:09:23;;;;;;;3.95;1.45;;;;;;;15.22;100.00;99102.88;4408775;32;20090;-72
2022/07/12 02:11:50;;;;;;;4.05;1.50;;;;;;;15.05;100.00;99067.16;4417845;32;20068;-72
2022/07/12 02:14:16;;;;;;;2.45;1.30;;;;;;;15.35;100.00;99108.78;4417758;32;20060;-71
2022/07/12 02:16:43;;;;;;;2.28;0.93;;;;;;;15.33;100.00;99102.81;4415726;32;20093;-73
2022/07/12 02:19:12;;;;;;;4.30;1.50;;;;;;;14.85;100.00;99049.91;4415511;32;20042;-71
2022/07/12 02:21:38;;;;;;;3.40;1.45;;;;;;;14.96;100.00;99064.19;4402447;32;20047;-71
2022/07/12 02:24:11;;;;;;;4.70;1.35;;;;;;;15.21;100.00;99100.44;4416671;32;20046;-71
2022/07/12 02:26:38;;;;;;;2.42;1.60;;;;;;;14.99;100.00;99070.97;4420458;32;20035;-72
2022/07/12 02:29:05;;;;;;;4.18;1.17;;;;;;;15.25;100.00;99102.31;4418764;32;20041;-71
2022/07/12 02:31:32;;;;;;;1.35;1.10;;;;;;;15.02;100.00;99060.38;4423381;32;20372;-71
2022/07/12 02:33:58;;;;;;;3.17;1.45;;;;;;;15.19;100.00;99100.72;4432728;32;20038;-71
2022/07/12 02:36:25;;;;;;;2.08;1.50;;;;;;;14.95;100.00;99059.06;4423260;32;20038;-72
2022/07/12 02:38:51;;;;;;;7.57;1.27;;;;;;;15.21;100.00;99095.81;4430719;32;20379;-71
2022/07/12 02:41:18;;;;;;;1.58;1.48;;;;;;;14.95;100.00;99054.47;4416235;32;20076;-71
2022/07/12 02:43:44;;;;;;;1.37;1.27;;;;;;;15.17;100.00;99088.53;4418328;32;20422;-70
2022/07/12 02:46:13;;;;;;;2.00;1.33;;;;;;;15.17;100.00;99100.19;4415427;32;20042;-72
2022/07/12 02:48:41;;;;;;;4.10;1.48;;;;;;;15.10;100.00;99088.03;4415889;32;20391;-71
2022/07/12 02:51:09;;;;;;;1.95;1.23;;;;;;;14.96;100.00;99068.81;4416178;32;20030;-71
2022/07/12 02:53:36;;;;;;;6.20;1.20;;;;;;;15.12;100.00;99078.50;4424305;32;20371;-71
2022/07/12 02:56:03;;;;;;;2.10;1.50;;;;;;;15.17;100.00;99078.50;4416410;32;20042;-71
2022/07/12 02:58:29;;;;;;;5.10;1.40;;;;;;;15.24;100.00;99078.19;4429997;32;20050;-73
2022/07/12 03:00:56;;;;;;;1.83;0.90;;;;;;;14.80;100.00;98997.59;4430148;32;20041;-71
2022/07/12 03:03:22;;;;;;;5.78;1.60;;;;;;;14.97;100.00;99038.72;4417857;32;20055;-71
2022/07/12 03:05:48;;;;;;;1.10;1.10;;;;;;;15.09;100.00;99068.22;4416828;32;20451;-71
2022/07/12 03:08:21;;;;;;;7.03;1.15;;;;;;;15.17;100.00;99078.50;4403749;32;20060;-71
2022/07/12 03:10:47;;;;;;;1.73;1.45;;;;;;;15.29;100.00;99080.06;4415294;32;20100;-71
2022/07/12 03:13:15;;;;;;;1.45;1.08;;;;;;;15.14;100.00;99045.69;4415348;32;20043;-71
2022/07/12 03:15:41;;;;;;;3.70;1.17;;;;;;;15.31;100.00;99072.47;4422181;32;20433;-71
2022/07/12 03:18:07;;;;;;;1.58;1.48;;;;;;;15.18;100.00;99058.41;4429214;32;20072;-73
2022/07/12 03:20:34;;;;;;;2.58;1.23;;;;;;;15.29;100.00;99077.34;4429909;32;20035;-71
2022/07/12 03:23:00;;;;;;;5.78;1.05;;;;;;;15.22;100.00;99080.34;4417249;32;20046;-70
2022/07/12 03:25:26;;;;;;;2.03;1.02;;;;;;;14.93;100.00;99047.69;4428773;32;20478;-70
2022/07/12 03:27:54;;;;;;;0.90;0.90;;;;;;;15.15;100.00;99088.78;4430421;32;20046;-71
2022/07/12 03:30:20;;;;;;;2.22;0.93;;;;;;;14.92;100.00;99059.62;4415914;32;20055;-70
2022/07/12 03:32:46;;;;;;;2.70;1.35;;;;;;;15.17;100.00;99083.94;4420950;32;20352;-71
2022/07/12 03:35:14;;;;;;;5.50;1.25;;;;;;;14.41;100.00;99034.28;4432737;32;20420;-71
2022/07/12 03:37:51;;;;;;;4.57;1.23;;;;;;;14.91;100.00;99085.13;4432967;32;20064;-71
2022/07/12 03:40:19;;;;;;;2.08;1.05;;;;;;;15.12;100.00;99089.34;4432779;32;20030;-71
2022/07/12 03:42:46;;;;;;;1.40;1.30;;;;;;;15.08;100.00;99091.00;4433036;32;20075;-70
2022/07/12 03:45:14;;;;;;;1.40;1.30;;;;;;;15.17;100.00;99092.06;4425876;32;20105;-70
2022/07/12 03:47:41;;;;;;;0.93;0.93;;;;;;;14.97;100.00;99051.47;4418697;32;20162;-71
2022/07/12 03:50:10;;;;;;;2.95;1.12;;;;;;;15.30;100.00;99087.09;4425515;32;20079;-70
2022/07/12 03:52:37;;;;;;;5.00;1.45;;;;;;;14.97;100.00;99075.88;4433115;32;20050;-70
2022/07/12 03:55:04;;;;;;;4.57;1.25;;;;;;;15.17;100.00;99081.22;4433002;32;20107;-70
2022/07/12 03:57:31;;;;;;;1.62;1.52;;;;;;;14.94;100.00;99036.56;4433483;32;20042;-70
2022/07/12 03:59:57;;;;;;;1.40;1.30;;;;;;;15.03;100.00;99066.59;4431910;32;20046;-72
2022/07/12 04:02:24;;;;;;;2.67;2.20;;;;;;;14.97;100.00;99035.22;4432003;32;20038;-72
2022/07/12 04:04:52;;;;;;;2.40;1.50;;;;;;;15.05;100.00;99065.25;4433450;32;20079;-71
2022/07/12 04:07:18;;;;;;;2.12;1.20;;;;;;;15.20;100.00;99064.34;4428136;32;20058;-70
2022/07/12 04:09:45;;;;;;;1.40;1.27;;;;;;;15.19;100.00;99065.47;4422671;32;20061;-70
2022/07/12 04:12:11;;;;;;;1.10;1.10;;;;;;;15.15;100.00;99058.97;4416601;32;20394;-73
2022/07/12 04:14:38;;;;;;;5.95;1.33;;;;;;;15.41;100.00;99056.94;4417944;32;20034;-70
2022/07/12 04:17:05;;;;;;;1.42;1.27;;;;;;;15.41;100.00;99062.38;4418134;32;20030;-70
2022/07/12 04:19:32;;;;;;;1.30;1.20;;;;;;;15.09;100.00;99013.97;4417476;32;20375;-70
2022/07/12 04:21:59;;;;;;;1.83;1.65;;;;;;;14.84;100.00;99010.31;4416601;32;20084;-72
2022/07/12 04:24:25;;;;;;;1.23;1.10;;;;;;;14.74;100.00;99056.41;4416830;32;20035;-70
2022/07/12 04:26:52;;;;;;;3.35;1.02;;;;;;;14.82;100.00;99049.63;4404180;32;20064;-70
2022/07/12 04:29:19;;;;;;;8.05;1.30;;;;;;;14.57;100.00;99064.88;4416638;32;20034;-70
2022/07/12 04:31:45;;;;;;;17.15;1.52;;;;;;;14.95;100.00;99042.78;4426578;32;20420;-71
2022/07/12 04:34:16;;;;;;;3.40;1.02;;;;;;;14.97;100.00;99024.38;4434546;32;20383;-70
2022/07/12 04:36:47;;;;;;;2.92;1.42;;;;;;;15.00;100.00;99035.47;4420678;32;20046;-72
2022/07/12 04:39:14;;;;;;;15.45;1.35;;;;;;;14.91;100.00;98998.38;4414751;32;20108;-71
2022/07/12 04:41:40;;;;;;;3.53;1.55;;;;;;;15.23;100.00;99055.66;4417070;32;20385;-71
2022/07/12 04:44:07;;;;;;;6.10;1.33;;;;;;;15.20;100.00;99055.41;4430282;32;20046;-70
2022/07/12 04:46:34;;;;;;;1.40;1.23;;;;;;;15.22;100.00;99053.22;4432737;32;20454;-70
2022/07/12 04:49:00;;;;;;;10.32;1.40;;;;;;;14.95;100.00;99030.06;4431360;32;20165;-69
2022/07/12 04:51:27;;;;;;;6.07;1.60;;;;;;;15.02;100.00;99030.56;4419580;32;20042;-70
2022/07/12 04:53:54;;;;;;;6.65;1.67;;;;;;;15.29;100.00;99074.66;4420756;32;20107;-70
2022/07/12 04:56:20;;;;;;;2.15;1.75;;;;;;;15.17;100.00;99051.38;4431895;32;20112;-70
2022/07/12 04:58:47;;;;;;;2.80;1.67;;;;;;;15.05;100.00;99015.66;4416983;32;20379;-71
2022/07/12 05:01:14;;;;;;;4.95;1.67;;;;;;;15.04;100.00;99008.59;4418388;32;20093;-69
2022/07/12 05:03:41;;;;;;;6.30;1.60;;;;;;;15.43;100.00;99064.78;4403456;32;20080;-70
2022/07/12 05:06:08;;;;;;;6.95;1.62;;;;;;;15.25;100.00;99010.09;4420808;32;20471;-70
2022/07/12 05:08:35;;;;;;;4.32;1.55;;;;;;;15.32;100.00;99019.84;4432097;32;20056;-70
2022/07/12 05:11:01;;;;;;;3.60;1.55;;;;;;;15.25;100.00;99015.53;4432127;32;20351;-70
2022/07/12 05:13:27;;;;;;;5.30;1.45;;;;;;;15.62;100.00;99056.81;4432181;32;20179;-70
2022/07/12 05:15:54;;;;;;;2.20;1.75;;;;;;;15.35;100.00;99019.25;4434206;32;20042;-74
2022/07/12 05:18:20;;;;;;;2.65;1.55;;;;;;;15.59;100.00;99047.31;4430516;32;20046;-73
2022/07/12 05:20:47;;;;;;;4.78;2.67;;;;;;;15.39;100.00;99023.03;4418000;32;20030;-77
2022/07/12 05:23:14;;;;;;;2.58;2.10;;;;;;;15.40;100.00;99027.38;4433047;32;20478;-77
2022/07/12 05:25:40;;;;;;;3.22;1.50;;;;;;;15.69;100.00;99023.91;4402972;32;20211;-77
2022/07/12 05:28:06;;;;;;;2.50;1.55;;;;;;;16.07;100.00;99079.28;4416030;32;20101;-76
2022/07/12 05:30:33;;;;;;;1.73;1.33;;;;;;;15.95;100.00;99071.47;4417180;32;20461;-77
2022/07/12 05:33:00;;;;;;;4.55;1.98;;;;;;;15.98;100.00;99061.97;4429924;32;20060;-76
2022/07/12 05:35:26;;;;;;;3.25;1.80;;;;;;;16.28;100.00;99069.03;4431230;32;20386;-76
2022/07/12 05:37:53;;;;;;;3.65;1.90;;;;;;;16.31;100.00;99062.22;4446619;32;20469;-76
2022/07/12 05:40:20;;;;;;;6.78;2.03;;;;;;;16.20;100.00;99023.47;4430163;32;20314;-75
2022/07/12 05:42:53;;;;;;;10.35;3.47;;;;;;;16.29;100.00;99053.53;4427397;32;20043;-75
2022/07/12 05:45:22;;;;;;;3.17;2.05;;;;;;;16.39;100.00;99063.53;4416775;32;20054;-78
2022/07/12 05:47:49;;;;;;;6.80;2.03;;;;;;;16.24;100.00;99068.00;4430998;32;20467;-76
2022/07/12 05:50:15;;;;;;;6.00;2.28;;;;;;;16.26;100.00;99057.66;4431552;32;20033;-77
2022/07/12 05:55:26;;;;;;;3.22;1.52;;;;;;;16.03;100.00;99055.69;4423118;32;20052;-77
2022/07/12 05:57:53;;;;;;;4.05;1.87;;;;;;;16.15;100.00;99050.69;4415570;32;20046;-77
2022/07/12 06:00:19;;;;;;;2.47;1.95;;;;;;;15.95;100.00;99066.06;4439329;32;20053;-76
2022/07/12 06:02:46;;;;;;;4.72;2.00;;;;;;;16.08;100.00;99052.91;4424665;32;20127;-76
2022/07/12 06:05:19;;;;;;;3.72;1.48;;;;;;;16.07;100.00;99033.13;4423987;32;20203;-76
2022/07/12 06:07:45;;;;;;;4.97;2.10;;;;;;;16.08;100.00;99031.19;4418800;32;20060;-77
2022/07/12 06:10:12;;;;;;;2.47;1.42;;;;;;;16.20;100.00;99045.22;4415560;32;20038;-76
2022/07/12 06:12:38;;;;;;;6.32;1.77;;;;;;;16.05;100.00;99010.03;4418193;32;20069;-77
2022/07/12 06:15:06;;;;;;;2.15;1.27;;;;;;;16.27;100.00;99047.59;4415505;32;20030;-76
2022/07/12 06:17:33;;;;;;;1.67;1.40;;;;;;;16.30;100.00;99039.66;4415506;32;20057;-76
2022/07/12 06:20:00;;;;;;;1.42;1.30;;;;;;;16.27;100.00;99034.81;4420433;32;20045;-73
2022/07/12 06:22:26;;;;;;;6.12;1.80;;;;;;;16.40;100.00;99044.22;4411086;32;20034;-73
2022/07/12 06:27:25;;;;;;;8.13;1.92;;;;;;;16.53;100.00;99045.44;4417583;32;20050;-73
2022/07/12 06:29:51;;;;;;;7.65;2.15;;;;;;;16.77;100.00;99060.91;4431030;32;20050;-72
2022/07/12 06:32:18;;;;;;;3.17;1.87;;;;;;;16.45;100.00;99008.81;4417226;32;20044;-72
2022/07/12 06:34:44;;;;;;;2.15;1.33;;;;;;;16.70;100.00;99062.09;4429771;32;20064;-73
2022/07/12 06:37:12;;;;;;;6.50;3.12;;;;;;;16.82;100.00;99044.56;4420850;32;20034;-73
2022/07/12 06:39:39;;;;;;;6.95;1.90;;;;;;;16.79;100.00;99045.12;4424155;32;20034;-73
2022/07/12 06:42:05;;;;;;;3.08;1.17;;;;;;;16.66;100.00;99014.81;4430057;32;20042;-74
2022/07/12 06:44:33;;;;;;;3.45;1.45;;;;;;;16.98;100.00;99045.22;4415171;32;20162;-73
2022/07/12 06:46:59;;;;;;;4.93;1.80;;;;;;;16.73;100.00;99000.06;4430857;32;20925;-72
2022/07/12 06:49:26;;;;;;;5.20;2.15;;;;;;;16.93;100.00;98997.13;4430810;32;20087;-73
2022/07/12 06:51:53;;;;;;;5.65;1.52;;;;;;;17.21;100.00;99038.88;4416448;32;20042;-73
2022/07/12 06:54:19;;;;;;;5.28;1.77;;;;;;;17.14;100.00;99040.37;4427348;32;20071;-72
2022/07/12 06:56:45;;;;;;;3.22;2.22;;;;;;;17.06;100.00;98996.41;4430685;32;20147;-73
2022/07/12 06:59:12;;;;;;;2.60;1.90;;;;;;;17.30;100.00;99006.41;4424208;32;20034;-73
2022/07/12 07:01:39;;;;;;;1.65;1.50;;;;;;;17.49;100.00;99041.78;4429527;32;20022;-74
2022/07/12 07:04:06;;;;;;;9.02;1.87;;;;;;;16.97;100.00;98970.16;4417727;32;20046;-75
2022/07/12 07:06:32;;;;;;;6.00;1.73;;;;;;;17.14;100.00;99008.53;4425240;32;20080;-74
2022/07/12 07:08:59;;;;;;;6.93;1.70;;;;;;;17.43;100.00;99027.41;4407649;32;20042;-74
2022/07/12 07:11:26;;;;;;;5.78;1.45;;;;;;;16.38;100.00;98860.81;4413510;32;20599;-74
2022/07/12 07:13:53;;;;;;;1.25;1.15;;;;;;;17.20;100.00;99048.16;4401372;32;20062;-74
2022/07/12 07:16:22;;;;;;;1.58;1.33;;;;;;;17.18;100.00;98987.81;4413570;32;20356;-74
2022/07/12 07:18:48;;;;;;;1.42;1.33;;;;;;;17.67;100.00;99031.97;4432598;32;20119;-74
2022/07/12 07:21:15;;;;;;;7.72;1.23;;;;;;;17.25;100.00;98999.12;4416184;32;20060;-74
2022/07/12 07:23:41;;;;;;;2.10;0.98;;;;;;;17.46;100.00;98998.00;4419251;32;20078;-74
2022/07/12 07:26:07;;;;;;;3.92;1.12;;;;;;;17.73;100.00;99017.16;4421303;32;20047;-75
2022/07/12 07:30:51;;;;;;;4.35;1.60;;;;;;;17.66;100.00;98986.78;4420518;32;20089;-75
2022/07/12 07:31:20;;;;;;;1.58;1.23;;;;;;;17.88;100.00;99042.56;4419491;32;20105;-74
2022/07/12 07:33:47;;;;;;;4.90;1.20;;;;;;;17.68;100.00;99033.59;4403466;32;20027;-74
2022/07/12 07:36:13;;;;;;;3.08;1.20;;;;;;;18.05;100.00;99029.19;4420607;32;20078;-74
2022/07/12 07:38:39;;;;;;;2.25;1.40;;;;;;;17.99;100.00;98989.53;4417378;32;20046;-73
2022/07/12 07:41:06;;;;;;;1.80;1.62;;;;;;;18.26;100.00;99026.91;4404243;32;20054;-73
2022/07/12 07:43:33;;;;;;;1.85;1.52;;;;;;;18.48;100.00;99039.84;4405770;32;20699;-74
2022/07/12 07:46:01;;;;;;;9.00;1.52;;;;;;;18.17;100.00;99012.34;4421556;32;20068;-74
2022/07/12 07:48:28;;;;;;;5.28;2.03;;;;;;;18.45;100.00;99007.75;4403773;32;20072;-74
2022/07/12 07:50:55;;;;;;;1.10;0.75;;;;;;;18.60;100.00;99063.87;4420242;32;20076;-73
2022/07/12 07:53:23;;;;;;;1.48;1.35;;;;;;;18.39;100.00;99010.87;4421716;32;20080;-73
2022/07/12 07:55:50;;;;;;;8.95;1.08;;;;;;;18.44;100.00;99027.13;4419901;32;20038;-74
2022/07/12 07:58:16;;;;;;;5.20;1.35;;;;;;;18.42;100.00;99002.09;4421892;32;20125;-74
2022/07/12 08:00:43;;;;;;;1.73;1.10;;;;;;;18.87;100.00;99035.88;4424683;32;20358;-73
2022/07/12 08:03:09;;;;;;;1.85;1.20;;;;;;;19.01;100.00;99051.41;4423059;32;20072;-74
2022/07/12 08:05:35;;;;;;;3.15;1.00;;;;;;;19.03;100.00;99044.53;4420371;32;20383;-76
2022/07/12 08:08:02;;;;;;;4.12;0.80;;;;;;;18.56;100.00;98994.72;4420212;32;20053;-76
2022/07/12 08:10:28;;;;;;;1.23;1.12;;;;;;;18.62;100.00;99033.59;4421706;32;20051;-76
2022/07/12 08:12:54;;;;;;;1.48;0.98;;;;;;;18.74;100.00;99047.53;4406765;32;20405;-76
2022/07/12 08:15:22;;;;;;;1.30;0.80;;;;;;;18.85;100.00;99065.34;4421391;32;20211;-76
2022/07/12 08:17:48;;;;;;;3.20;0.70;;;;;;;18.68;100.00;99043.28;4421170;32;20034;-76
2022/07/12 08:20:14;;;;;;;1.48;0.80;;;;;;;18.69;100.00;99020.38;4419456;32;20360;-76
2022/07/12 08:22:45;;;;;;;0.88;0.88;;;;;;;18.73;100.00;99013.22;4408771;32;20361;-78
2022/07/12 08:25:12;;;;;;;1.17;0.90;;;;;;;19.17;100.00;99060.88;4411023;32;20042;-76
2022/07/12 08:27:39;;;;;;;1.48;0.70;;;;;;;18.67;100.00;98995.34;4423986;32;20062;-77
2022/07/12 08:30:06;;;;;;;5.68;1.30;;;;;;;18.58;100.00;98997.16;4428389;32;20396;-78
2022/07/12 08:32:46;;;;;;;2.17;0.60;;;;;;;18.60;100.00;99025.72;4424386;32;20033;-79
2022/07/12 08:35:14;;;;;;;2.45;1.02;;;;;;;18.63;100.00;99062.50;4432333;32;20129;-77
2022/07/12 08:37:43;;;;;;;0.90;0.90;;;;;;;18.48;100.00;99022.69;4423769;32;20403;-78
2022/07/12 08:40:10;;;;;;;4.18;0.90;;;;;;;18.72;100.00;99065.34;4432731;32;20050;-76
2022/07/12 08:42:41;;;;;;;0.73;0.73;;;;;;;18.71;100.00;99023.59;4422635;32;20051;-78
2022/07/12 08:45:14;;;;;;;0.80;0.80;;;;;;;18.91;100.00;99054.31;4419777;32;20101;-76
2022/07/12 08:47:41;;;;;;;0.80;0.80;;;;;;;19.05;100.00;99036.00;4421932;32;20056;-75
2022/07/12 08:50:19;;;;;;;1.95;0.88;;;;;;;19.19;100.00;99064.13;4425264;32;20107;-76
2022/07/12 08:52:54;;;;;;;2.40;0.98;;;;;;;19.40;100.00;99041.81;4420625;32;20345;-73
2022/07/12 08:55:30;;;;;;;0.70;0.70;;;;;;;19.35;100.00;99014.62;4419026;32;20062;-73
2022/07/12 08:57:59;;;;;;;7.70;0.90;;;;;;;19.36;100.00;99041.63;4422440;32;20052;-74
2022/07/12 09:00:27;;;;;;;0.77;0.70;;;;;;;19.32;100.00;99075.28;4405575;32;20064;-74
2022/07/12 09:02:59;;;;;;;1.55;0.75;;;;;;;19.16;100.00;99014.78;4409979;32;20058;-73
2022/07/12 09:05:32;;;;;;;2.67;1.00;;;;;;;19.52;100.00;99072.09;4401464;32;20038;-73
2022/07/12 09:08:06;;;;;;;3.83;0.80;;;;;;;19.33;100.00;99030.50;4417441;32;20375;-74
2022/07/12 09:10:34;;;;;;;1.62;1.10;;;;;;;19.11;100.00;99029.34;4420898;32;20104;-74
2022/07/12 09:13:01;;;;;;;1.42;0.93;;;;;;;19.21;100.00;99033.75;4421324;32;20060;-75
2022/07/12 09:15:28;;;;;;;1.48;0.82;;;;;;;19.28;100.00;99019.72;4417326;32;20072;-74
2022/07/12 09:17:58;;;;;;;0.77;0.77;;;;;;;19.77;100.00;99050.81;4424428;32;20093;-73
2022/07/12 09:20:48;;;;;;;2.42;0.88;;;;;;;19.89;100.00;99045.59;4410404;32;20437;-74
2022/07/12 09:23:15;;;;;;;5.55;0.80;;;;;;;19.85;100.00;99052.81;4423175;32;20058;-73
2022/07/12 09:25:46;;;;;;;9.13;0.70;;;;;;;19.62;100.00;99049.22;4421270;32;20061;-74
2022/07/12 09:28:14;;;;;;;3.10;0.87;;;;;;;19.69;100.00;99040.59;4405056;32;20121;-75
2022/07/12 09:30:53;;;;;;;1.20;0.60;;;;;;;19.56;100.00;99051.28;4422489;32;20430;-75
2022/07/12 09:36:07;;;;;;;0.50;0.50;;;;;;;19.86;100.00;99043.47;4416368;32;20089;-74
2022/07/12 09:38:38;;;;;;;5.30;0.77;;;;;;;19.73;100.00;99039.66;4414221;32;20215;-73
2022/07/12 09:41:06;;;;;;;0.60;0.60;;;;;;;19.71;100.00;99033.72;4428188;32;20200;-74
2022/07/12 09:43:33;;;;;;;4.95;0.52;;;;;;;20.11;100.00;99071.31;4422189;32;20342;-74
2022/07/12 09:46:00;;;;;;;2.67;0.62;;;;;;;19.94;100.00;99059.16;4422055;32;20049;-74
2022/07/12 09:48:28;;;;;;;1.55;0.80;;;;;;;20.09;100.00;99057.94;4415546;32;20051;-73
2022/07/12 09:50:57;;;;;;;1.25;0.73;;;;;;;20.26;100.00;99043.56;4432005;32;20042;-73
2022/07/12 09:53:43;;;;;;;1.48;0.80;;;;;;;20.50;100.00;99061.53;4430896;32;20098;-73
2022/07/12 09:56:13;;;;;;;0.68;0.68;;;;;;;20.46;100.00;99041.41;4420662;32;20068;-72
2022/07/12 09:58:44;;;;;;;2.33;0.88;;;;;;;20.29;100.00;99029.25;4421603;32;20177;-73
2022/07/12 10:01:11;;;;;;;2.05;0.80;;;;;;;20.41;100.00;99025.94;4422077;32;20092;-73
2022/07/12 10:03:40;;;;;;;2.03;0.82;;;;;;;19.90;100.00;98967.19;4407937;32;20042;-74
2022/07/12 10:06:07;;;;;;;0.73;0.70;;;;;;;20.52;100.00;99031.94;4422989;32;20050;-73
2022/07/12 10:08:35;;;;;;;10.65;1.10;;;;;;;20.55;100.00;98997.69;4424353;32;20050;-74
2022/07/12 10:11:02;;;;;;;2.97;0.70;;;;;;;20.47;100.00;99041.09;4419360;32;20368;-73
2022/07/12 10:13:30;;;;;;;0.77;0.77;;;;;;;20.40;100.00;99064.53;4413297;32;20064;-73
2022/07/12 10:16:00;;;;;;;0.68;0.68;;;;;;;20.23;100.00;99041.47;4422280;32;20056;-75
2022/07/12 10:18:28;;;;;;;2.03;1.10;;;;;;;20.54;100.00;99068.00;4407496;32;20057;-74
2022/07/12 10:20:54;;;;;;;3.00;0.93;;;;;;;20.70;100.00;99032.03;4421352;32;20061;-72
2022/07/12 10:23:33;;;;;;;2.70;0.70;;;;;;;20.87;100.00;99048.50;4421778;32;20064;-73
2022/07/12 10:26:21;;;;;;;1.05;0.95;;;;;;;20.81;100.00;99047.84;4421702;32;20043;-74
2022/07/12 10:29:03;;;;;;;0.77;0.77;;;;;;;20.94;100.00;99043.38;4417502;32;20389;-74
2022/07/12 10:31:34;;;;;;;0.88;0.88;;;;;;;20.78;100.00;99061.34;4420464;32;20054;-73
2022/07/12 10:34:23;;;;;;;5.15;1.17;;;;;;;20.68;100.00;99074.19;4428256;32;20050;-73
2022/07/12 10:36:56;;;;;;;3.80;1.25;;;;;;;20.46;100.00;99049.63;4415450;32;20064;-73
2022/07/12 10:39:27;;;;;;;0.93;0.90;;;;;;;20.86;100.00;99046.88;4417854;32;20046;-74
2022/07/12 10:42:06;;;;;;;1.23;0.73;;;;;;;20.78;100.00;99001.16;4424130;32;20046;-73
2022/07/12 10:44:37;;;;;;;2.85;0.80;;;;;;;20.80;100.00;99048.16;4430836;32;20081;-73
2022/07/12 10:47:06;;;;;;;2.58;1.00;;;;;;;21.07;100.00;99038.09;4424843;32;20487;-74
2022/07/12 10:49:47;;;;;;;6.55;1.08;;;;;;;20.64;95.26;99018.50;4430731;32;20046;-74
2022/07/12 10:52:15;;;;;;;0.80;0.68;;;;;;;20.59;93.32;99035.03;4426942;32;20072;-73
2022/07/12 10:54:55;;;;;;;3.70;0.85;;;;;;;20.49;90.87;98999.75;4421250;32;20474;-74
2022/07/12 10:57:44;;;;;;;0.45;0.45;;;;;;;20.86;89.22;99011.31;4415124;32;20056;-74
2022/07/12 11:00:13;;;;;;;2.10;0.68;;;;;;;21.15;79.95;99032.63;4425867;32;20038;-72
2022/07/12 11:02:41;;;;;;;1.50;0.70;;;;;;;21.38;79.69;99040.69;4427775;32;20152;-72
2022/07/12 11:05:33;;;;;;;2.15;0.70;;;;;;;21.19;83.98;98989.00;4430763;32;20076;-74
2022/07/12 11:08:00;;;;;;;1.37;0.65;;;;;;;21.46;79.10;99047.31;4414784;32;20076;-73
2022/07/12 11:10:26;;;;;;;0.60;0.60;;;;;;;21.46;76.33;99036.34;4415001;32;20046;-71
2022/07/12 11:12:52;;;;;;;3.17;0.73;;;;;;;21.58;64.02;99022.84;4425783;32;20069;-72
2022/07/12 11:15:19;;;;;;;3.25;0.82;;;;;;;21.20;60.88;99028.91;4430683;32;20056;-72
2022/07/12 11:17:52;;;;;;;0.50;0.50;;;;;;;21.65;62.71;99039.63;4427722;32;20095;-72
2022/07/12 11:20:18;;;;;;;8.65;0.50;;;;;;;21.60;58.80;99047.97;4430492;32;20060;-72
2022/07/12 11:22:45;;;;;;;0.70;0.70;;;;;;;21.63;56.91;99030.91;4415345;32;20430;-73
2022/07/12 11:25:12;;;;;;;0.50;0.50;;;;;;;21.75;57.78;99033.78;4421143;32;20038;-73
2022/07/12 11:27:39;;;;;;;0.82;0.60;;;;;;;21.76;55.54;99034.59;4414850;32;20437;-74
2022/07/12 11:30:08;;;;;;;6.12;1.23;;;;;;;21.40;59.19;98951.59;4398890;32;20055;-74
2022/07/12 11:32:40;;;;;;;1.05;0.60;;;;;;;21.75;61.32;98987.22;4415436;32;20126;-75
2022/07/12 11:35:25;;;;;;;0.88;0.60;;;;;;;22.02;61.39;99026.34;4418498;32;20497;-73
2022/07/12 11:37:53;;;;;;;0.65;0.60;;;;;;;22.59;56.75;99021.66;4421852;32;20666;-72
2022/07/12 11:40:25;;;;;;;0.70;0.70;;;;;;;22.54;60.21;99013.59;4423763;32;20051;-73